createdAt,value
2022-10-29T00:00:57.097Z,85.64
2022-10-29T00:03:37.043Z,85.68
2022-10-29T00:06:07.821Z,85.81
2022-10-29T00:08:37.149Z,87.13
2022-10-29T00:11:24.555Z,87.15
2022-10-29T00:13:58.465Z,86.58
2022-10-29T00:16:28.821Z,85.69
2022-10-29T00:18:56.517Z,85.72
2022-10-29T00:21:25.510Z,85.85
2022-10-29T00:23:53.282Z,86.15
2022-10-29T00:26:21.842Z,86.31
2022-10-29T00:28:54.203Z,87.13
2022-10-29T00:31:25.165Z,86.92
2022-10-29T00:33:55.474Z,87.49
2022-10-29T00:36:27.573Z,86.87
2022-10-29T00:38:56.309Z,87.02
2022-10-29T00:41:27.761Z,86.63
2022-10-29T00:44:22.573Z,86.66
2022-10-29T00:47:11.607Z,87.32
2022-10-29T00:49:40.263Z,87.27
2022-10-29T00:52:08.885Z,87.37
2022-10-29T00:54:42.204Z,87.02
2022-10-29T00:57:26.204Z,87.15
2022-10-29T00:59:53.913Z,87.07
2022-10-29T01:02:23.517Z,87.30
2022-10-29T01:04:52.675Z,86.93
2022-10-29T01:07:22.244Z,86.73
2022-10-29T01:09:50.179Z,87.38
2022-10-29T01:12:26.401Z,88.24
2022-10-29T01:15:06.912Z,87.76
2022-10-29T01:18:02.989Z,87.89
2022-10-29T01:21:13.326Z,87.63
2022-10-29T01:24:22.778Z,87.40
2022-10-29T01:27:24.982Z,88.10
2022-10-29T01:30:10.906Z,87.94
2022-10-29T01:32:56.284Z,87.99
2022-10-29T01:35:57.048Z,87.29
2022-10-29T01:38:48.640Z,87.69
2022-10-29T01:41:54.575Z,89.22
2022-10-29T01:44:38.355Z,89.46
2022-10-29T01:47:18.553Z,88.96
2022-10-29T01:49:52.757Z,89.26
2022-10-29T01:52:21.572Z,89.11
2022-10-29T01:54:48.654Z,89.06
2022-10-29T01:57:39.204Z,89.85
2022-10-29T02:00:12.447Z,90.49
2022-10-29T02:03:10.109Z,89.66
2022-10-29T02:05:44.392Z,90.08
2022-10-29T02:08:44.706Z,90.03
2022-10-29T02:11:23.524Z,89.22
2022-10-29T02:14:33.248Z,89.94
2022-10-29T02:17:02.029Z,89.88
2022-10-29T02:19:34.163Z,89.43
2022-10-29T02:22:01.347Z,89.86
2022-10-29T02:24:28.398Z,90.72
2022-10-29T02:26:55.530Z,89.84
2022-10-29T02:29:22.863Z,89.62
2022-10-29T02:31:49.907Z,89.79
2022-10-29T02:34:17.048Z,89.78
2022-10-29T02:36:44.269Z,90.00
2022-10-29T02:39:11.260Z,90.21
2022-10-29T02:41:38.314Z,89.90
2022-10-29T02:44:05.258Z,89.91
2022-10-29T02:46:35.457Z,89.59
2022-10-29T02:49:02.499Z,89.49
2022-10-29T02:51:29.522Z,89.59
2022-10-29T02:53:56.696Z,89.29
2022-10-29T02:56:23.720Z,90.37
2022-10-29T02:58:50.794Z,90.54
2022-10-29T03:01:17.908Z,90.37
2022-10-29T03:03:44.979Z,90.41
2022-10-29T03:06:17.458Z,90.05
2022-10-29T03:08:45.615Z,90.36
2022-10-29T03:11:13.118Z,90.49
2022-10-29T03:13:40.201Z,91.02
2022-10-29T03:16:07.418Z,91.35
2022-10-29T03:18:34.569Z,90.86
2022-10-29T03:21:02.531Z,90.17
2022-10-29T03:23:29.534Z,90.80
2022-10-29T03:25:56.891Z,90.58
2022-10-29T03:28:27.686Z,90.75
2022-10-29T03:30:54.726Z,90.36
2022-10-29T03:33:21.994Z,91.14
2022-10-29T03:35:49.156Z,91.03
2022-10-29T03:38:16.285Z,90.56
2022-10-29T03:40:43.485Z,90.77
2022-10-29T03:43:10.576Z,91.13
2022-10-29T03:45:37.527Z,90.16
2022-10-29T03:48:05.146Z,90.01
2022-10-29T03:50:32.273Z,89.81
2022-10-29T03:52:59.256Z,89.73
2022-10-29T03:55:28.639Z,89.60
2022-10-29T03:57:56.181Z,89.68
2022-10-29T04:00:23.411Z,89.60
2022-10-29T04:02:50.505Z,89.72
2022-10-29T04:05:17.780Z,89.37
2022-10-29T04:07:45.048Z,90.27
2022-10-29T04:10:12.183Z,90.71
2022-10-29T04:12:39.322Z,90.54
2022-10-29T04:15:07.155Z,89.94
2022-10-29T04:17:34.230Z,89.70
2022-10-29T04:20:01.481Z,89.68
2022-10-29T04:24:32.538Z,89.91
2022-10-29T04:28:42.608Z,90.33
2022-10-29T04:30:51.699Z,90.30
2022-10-29T04:33:19.194Z,90.27
2022-10-29T04:35:52.806Z,90.32
2022-10-29T04:38:20.886Z,90.62
2022-10-29T04:40:48.488Z,90.77
2022-10-29T04:43:16.044Z,90.97
2022-10-29T04:48:15.172Z,90.52
2022-10-29T04:50:42.258Z,90.57
2022-10-29T04:53:09.185Z,90.64
2022-10-29T04:55:38.221Z,90.69
2022-10-29T04:58:06.899Z,90.52
2022-10-29T05:00:34.071Z,90.57
2022-10-29T05:03:01.164Z,90.41
2022-10-29T05:05:28.686Z,90.69
2022-10-29T05:07:58.079Z,91.01
2022-10-29T05:10:30.881Z,91.17
2022-10-29T05:13:10.696Z,90.58
2022-10-29T05:15:39.386Z,90.95
2022-10-29T05:18:07.500Z,90.77
2022-10-29T05:20:35.669Z,90.77
2022-10-29T05:23:06.368Z,90.72
2022-10-29T05:25:36.203Z,90.42
2022-10-29T05:28:09.461Z,90.75
2022-10-29T05:30:37.305Z,90.25
2022-10-29T05:33:12.042Z,90.77
2022-10-29T05:35:39.350Z,91.18
2022-10-29T05:38:10.787Z,91.11
2022-10-29T05:40:38.522Z,90.80
2022-10-29T05:43:08.265Z,90.34
2022-10-29T05:45:35.441Z,90.17
2022-10-29T05:48:04.190Z,90.42
2022-10-29T05:50:33.058Z,90.47
2022-10-29T05:53:10.134Z,90.82
2022-10-29T05:55:41.826Z,90.73
2022-10-29T05:58:13.465Z,90.60
2022-10-29T06:00:43.774Z,90.02
2022-10-29T06:03:15.193Z,90.49
2022-10-29T06:05:42.501Z,90.31
2022-10-29T06:08:09.789Z,90.88
2022-10-29T06:10:37.801Z,90.89
2022-10-29T06:13:21.979Z,90.57
2022-10-29T06:15:50.629Z,90.09
2022-10-29T06:18:17.819Z,90.17
2022-10-29T06:20:45.002Z,89.93
2022-10-29T06:23:12.041Z,90.25
2022-10-29T06:25:39.245Z,90.03
2022-10-29T06:28:11.421Z,90.52
2022-10-29T06:30:39.415Z,90.27
2022-10-29T06:33:06.721Z,90.55
2022-10-29T06:38:05.085Z,91.03
2022-10-29T06:40:35.224Z,91.07
2022-10-29T06:43:05.755Z,90.62
2022-10-29T06:45:34.218Z,90.23
2022-10-29T06:48:01.658Z,89.66
2022-10-29T06:50:28.799Z,89.56
2022-10-29T06:53:03.521Z,89.77
2022-10-29T06:55:32.675Z,89.99
2022-10-29T06:58:03.730Z,89.72
2022-10-29T07:00:32.074Z,88.99
2022-10-29T07:02:59.649Z,88.25
2022-10-29T07:05:27.115Z,87.41
2022-10-29T07:07:58.637Z,86.56
2022-10-29T07:10:29.427Z,85.57
2022-10-29T07:12:56.868Z,84.69
2022-10-29T07:15:27.549Z,84.06
2022-10-29T07:18:05.753Z,83.77
2022-10-29T07:20:37.205Z,83.59
2022-10-29T07:23:04.951Z,82.45
2022-10-29T07:25:33.139Z,81.46
2022-10-29T07:28:20.178Z,80.89
2022-10-29T07:30:50.321Z,80.44
2022-10-29T07:33:18.121Z,79.17
2022-10-29T07:35:45.753Z,77.78
2022-10-29T07:38:12.875Z,77.36
2022-10-29T07:40:47.174Z,75.93
2022-10-29T07:43:15.358Z,76.24
2022-10-29T07:45:45.625Z,75.91
2022-10-29T07:48:12.749Z,74.64
2022-10-29T07:50:39.818Z,73.13
2022-10-29T07:53:07.878Z,71.25
2022-10-29T07:55:35.080Z,69.80
2022-10-29T07:58:06.125Z,69.12
2022-10-29T08:00:36.529Z,68.04
2022-10-29T08:03:04.637Z,66.81
2022-10-29T08:05:32.582Z,66.27
2022-10-29T08:07:59.823Z,67.53
2022-10-29T08:10:28.975Z,65.79
2022-10-29T08:12:59.539Z,65.26
2022-10-29T08:15:29.770Z,65.49
2022-10-29T08:17:57.254Z,65.31
2022-10-29T08:20:27.314Z,65.83
2022-10-29T08:22:55.109Z,65.01
2022-10-29T08:25:22.426Z,65.13
2022-10-29T08:28:04.235Z,65.00
2022-10-29T08:30:32.335Z,64.74
2022-10-29T08:33:00.800Z,63.23
2022-10-29T08:35:28.845Z,62.42
2022-10-29T08:37:56.628Z,61.45
2022-10-29T08:40:59.414Z,60.55
2022-10-29T08:43:47.039Z,59.05
2022-10-29T08:46:48.289Z,59.45
2022-10-29T08:49:47.413Z,58.47
2022-10-29T08:52:26.142Z,57.54
2022-10-29T08:55:20.592Z,55.78
2022-10-29T08:57:55.391Z,55.99
2022-10-29T09:00:30.540Z,55.92
2022-10-29T09:03:00.382Z,53.79
2022-10-29T09:05:48.816Z,53.98
2022-10-29T09:08:56.727Z,52.82
2022-10-29T09:11:47.772Z,53.66
2022-10-29T09:15:09.667Z,52.64
2022-10-29T09:18:00.591Z,51.86
2022-10-29T09:21:15.080Z,53.28
2022-10-29T09:24:11.773Z,52.09
2022-10-29T09:27:06.710Z,51.85
2022-10-29T09:30:11.669Z,51.96
2022-10-29T09:35:20.733Z,50.97
2022-10-29T09:37:59.521Z,50.81
2022-10-29T09:40:39.001Z,50.66
2022-10-29T09:43:39.529Z,49.77
2022-10-29T09:46:51.244Z,50.00
2022-10-29T09:49:41.042Z,48.79
2022-10-29T09:52:22.550Z,47.74
2022-10-29T09:54:51.833Z,46.59
2022-10-29T09:57:30.709Z,46.32
2022-10-29T10:00:02.623Z,47.84
2022-10-29T10:03:15.682Z,47.25
2022-10-29T10:06:06.737Z,46.94
2022-10-29T10:08:35.043Z,46.79
2022-10-29T10:11:07.132Z,46.46
2022-10-29T10:13:51.092Z,47.20
2022-10-29T10:16:27.478Z,47.38
2022-10-29T10:18:54.586Z,46.96
2022-10-29T10:21:28.141Z,46.44
2022-10-29T10:23:59.839Z,46.54
2022-10-29T10:26:32.628Z,47.37
2022-10-29T10:29:17.320Z,46.13
2022-10-29T10:31:59.504Z,47.12
2022-10-29T10:34:37.298Z,45.91
2022-10-29T10:37:09.635Z,45.34
2022-10-29T10:39:39.172Z,44.70
2022-10-29T10:42:29.431Z,42.81
2022-10-29T10:45:02.825Z,41.55
2022-10-29T10:47:35.632Z,42.57
2022-10-29T10:50:18.098Z,41.59
2022-10-29T10:52:45.655Z,41.18
2022-10-29T10:55:25.471Z,40.69
2022-10-29T10:58:11.065Z,40.37
2022-10-29T11:01:11.999Z,41.55
2022-10-29T11:03:47.702Z,39.59
2022-10-29T11:06:28.062Z,38.62
2022-10-29T11:09:36.645Z,38.14
2022-10-29T11:12:13.178Z,40.48
2022-10-29T11:14:55.377Z,39.38
2022-10-29T11:17:31.957Z,38.06
2022-10-29T11:20:05.669Z,39.68
2022-10-29T11:22:43.110Z,38.53
2022-10-29T11:25:26.555Z,36.82
2022-10-29T11:28:24.363Z,36.53
2022-10-29T11:31:31.849Z,36.42
2022-10-29T11:34:08.733Z,36.01
2022-10-29T11:36:46.692Z,34.70
2022-10-29T11:39:23.313Z,34.62
2022-10-29T11:41:57.028Z,36.35
2022-10-29T11:44:23.989Z,35.27
2022-10-29T11:47:05.533Z,35.55
2022-10-29T11:49:53.975Z,34.80
2022-10-29T11:52:48.351Z,33.44
2022-10-29T11:55:19.770Z,34.10
2022-10-29T11:58:02.517Z,34.35
2022-10-29T12:00:50.346Z,35.09
2022-10-29T12:03:51.333Z,33.87
2022-10-29T12:06:39.088Z,32.46
2022-10-29T12:09:51.815Z,34.87
2022-10-29T12:13:03.714Z,33.69
2022-10-29T12:15:48.973Z,33.18
2022-10-29T12:18:27.356Z,32.78
2022-10-29T12:21:34.867Z,31.37
2022-10-29T12:24:21.304Z,33.52
2022-10-29T12:27:02.240Z,33.82
2022-10-29T12:29:39.588Z,31.92
2022-10-29T12:32:22.023Z,33.05
2022-10-29T12:35:17.834Z,32.38
2022-10-29T12:38:40.580Z,32.24
2022-10-29T12:41:41.797Z,31.68
2022-10-29T12:44:56.112Z,31.75
2022-10-29T12:47:41.062Z,32.06
2022-10-29T12:50:23.389Z,31.28
2022-10-29T12:53:34.041Z,32.47
2022-10-29T12:56:03.345Z,32.71
2022-10-29T12:58:42.471Z,31.41
2022-10-29T13:01:50.121Z,31.92
2022-10-29T13:04:33.866Z,31.96
2022-10-29T13:07:22.296Z,31.72
2022-10-29T13:09:49.390Z,32.66
2022-10-29T13:12:59.612Z,33.49
2022-10-29T13:15:47.382Z,32.68
2022-10-29T13:18:28.249Z,31.94
2022-10-29T13:20:55.883Z,32.40
2022-10-29T13:23:22.903Z,32.81
2022-10-29T13:25:59.816Z,32.61
2022-10-29T13:28:26.712Z,33.14
2022-10-29T13:31:13.547Z,34.45
2022-10-29T13:33:40.440Z,34.50
2022-10-29T13:36:16.332Z,35.12
2022-10-29T13:39:05.594Z,35.36
2022-10-29T13:41:49.763Z,34.93
2022-10-29T13:44:23.793Z,34.28
2022-10-29T13:47:19.855Z,33.95
2022-10-29T13:49:48.532Z,33.92
2022-10-29T13:52:21.371Z,33.52
2022-10-29T13:55:14.955Z,33.81
2022-10-29T13:58:16.831Z,33.25
2022-10-29T14:00:45.971Z,33.51
2022-10-29T14:03:27.317Z,34.11
2022-10-29T14:06:09.285Z,34.28
2022-10-29T14:09:12.526Z,35.14
2022-10-29T14:11:46.546Z,36.18
2022-10-29T14:14:33.468Z,36.73
2022-10-29T14:17:14.999Z,37.44
2022-10-29T14:19:47.828Z,37.78
2022-10-29T14:22:16.959Z,37.48
2022-10-29T14:24:44.171Z,37.86
2022-10-29T14:27:13.539Z,38.67
2022-10-29T14:29:41.118Z,39.48
2022-10-29T14:32:18.072Z,40.20
2022-10-29T14:34:50.561Z,40.91
2022-10-29T14:37:33.762Z,41.41
2022-10-29T14:40:10.877Z,42.95
2022-10-29T14:42:44.517Z,43.01
2022-10-29T14:45:31.766Z,44.00
2022-10-29T14:48:09.096Z,45.06
2022-10-29T14:50:36.307Z,45.58
2022-10-29T14:53:17.107Z,44.69
2022-10-29T14:55:48.770Z,47.38
2022-10-29T15:01:05.267Z,47.75
2022-10-29T15:03:34.839Z,47.92
2022-10-29T15:06:24.835Z,48.73
2022-10-29T15:09:03.298Z,49.15
2022-10-29T15:11:35.511Z,48.91
2022-10-29T15:14:23.335Z,50.23
2022-10-29T15:16:50.499Z,49.98
2022-10-29T15:19:18.500Z,50.63
2022-10-29T15:21:45.778Z,51.43
2022-10-29T15:24:20.641Z,52.83
2022-10-29T15:26:53.765Z,51.52
2022-10-29T15:29:42.777Z,52.57
2022-10-29T15:32:15.619Z,52.82
2022-10-29T15:34:55.706Z,53.32
2022-10-29T15:37:39.041Z,52.92
2022-10-29T15:40:26.432Z,53.87
2022-10-29T15:42:54.806Z,54.34
2022-10-29T15:45:27.590Z,53.50
2022-10-29T15:48:29.716Z,53.85
2022-10-29T15:50:57.192Z,53.60
2022-10-29T15:53:24.142Z,53.44
2022-10-29T15:55:54.762Z,53.13
2022-10-29T15:58:22.872Z,53.22
2022-10-29T16:00:50.985Z,53.93
2022-10-29T16:03:24.352Z,57.18
2022-10-29T16:05:59.264Z,55.24
2022-10-29T16:08:49.652Z,55.41
2022-10-29T16:11:20.231Z,55.80
2022-10-29T16:13:54.513Z,55.75
2022-10-29T16:16:25.071Z,55.40
2022-10-29T16:18:52.972Z,56.55
2022-10-29T16:21:25.679Z,56.14
2022-10-29T16:23:53.194Z,57.90
2022-10-29T16:26:25.503Z,56.28
2022-10-29T16:28:53.233Z,56.82
2022-10-29T16:31:28.113Z,56.98
2022-10-29T16:33:58.807Z,57.03
2022-10-29T16:36:26.556Z,56.07
2022-10-29T16:38:53.700Z,56.12
2022-10-29T16:41:20.829Z,57.28
2022-10-29T16:43:48.320Z,57.68
2022-10-29T16:46:15.941Z,57.49
2022-10-29T16:48:42.988Z,56.54
2022-10-29T16:51:10.075Z,55.97
2022-10-29T16:53:37.443Z,55.44
2022-10-29T16:56:05.193Z,55.33
2022-10-29T16:58:32.431Z,55.57
2022-10-29T17:01:07.841Z,55.60
2022-10-29T17:03:35.192Z,56.06
2022-10-29T17:06:07.738Z,55.61
2022-10-29T17:08:36.255Z,55.70
2022-10-29T17:11:05.924Z,55.38
2022-10-29T17:13:34.352Z,55.19
2022-10-29T17:16:07.295Z,55.80
2022-10-29T17:18:34.283Z,55.53
2022-10-29T17:21:01.941Z,55.17
2022-10-29T17:23:31.341Z,54.81
2022-10-29T17:25:59.231Z,54.39
2022-10-29T17:28:27.420Z,54.18
2022-10-29T17:30:54.385Z,54.38
2022-10-29T17:33:21.468Z,54.41
2022-10-29T17:35:48.501Z,55.12
2022-10-29T17:38:15.512Z,55.06
2022-10-29T17:40:45.531Z,55.45
2022-10-29T17:43:12.817Z,55.50
2022-10-29T17:45:41.653Z,55.54
2022-10-29T17:48:08.771Z,55.93
2022-10-29T17:50:35.849Z,56.29
2022-10-29T17:53:03.402Z,57.06
2022-10-29T17:55:30.629Z,56.98
2022-10-29T17:57:57.868Z,56.76
2022-10-29T18:00:25.659Z,57.21
2022-10-29T18:02:52.902Z,57.21
2022-10-29T18:05:20.059Z,57.74
2022-10-29T18:07:47.086Z,57.63
2022-10-29T18:10:15.454Z,57.26
2022-10-29T18:12:42.474Z,57.52
2022-10-29T18:15:09.890Z,57.94
2022-10-29T18:17:36.872Z,58.24
2022-10-29T18:20:04.792Z,58.37
2022-10-29T18:22:31.977Z,59.37
2022-10-29T18:24:59.160Z,58.84
2022-10-29T18:27:26.184Z,58.46
2022-10-29T18:29:53.184Z,58.26
2022-10-29T18:32:20.778Z,57.96
2022-10-29T18:34:47.786Z,57.88
2022-10-29T18:37:14.815Z,58.08
2022-10-29T18:39:41.793Z,58.06
2022-10-29T18:42:08.865Z,58.23
2022-10-29T18:44:37.853Z,58.20
2022-10-29T18:47:04.922Z,58.39
2022-10-29T18:49:31.876Z,58.53
2022-10-29T18:51:58.926Z,59.27
2022-10-29T18:54:26.000Z,59.88
2022-10-29T18:56:53.180Z,59.89
2022-10-29T18:59:21.047Z,59.21
2022-10-29T19:01:48.405Z,59.38
2022-10-29T19:04:16.045Z,59.54
2022-10-29T19:06:43.430Z,60.08
2022-10-29T19:09:11.184Z,60.05
2022-10-29T19:11:38.688Z,60.15
2022-10-29T19:14:11.326Z,60.57
2022-10-29T19:16:39.018Z,61.62
2022-10-29T19:19:11.104Z,61.15
2022-10-29T19:21:39.890Z,60.94
2022-10-29T19:24:07.766Z,61.56
2022-10-29T19:26:35.961Z,61.97
2022-10-29T19:29:05.343Z,61.12
2022-10-29T19:31:33.837Z,61.15
2022-10-29T19:34:05.483Z,61.29
2022-10-29T19:36:34.208Z,61.73
2022-10-29T19:39:01.356Z,61.83
2022-10-29T19:41:29.984Z,62.49
2022-10-29T19:44:01.327Z,62.39
2022-10-29T19:46:29.475Z,62.46
2022-10-29T19:48:57.841Z,61.91
2022-10-29T19:51:25.564Z,62.42
2022-10-29T19:53:52.748Z,62.43
2022-10-29T19:56:21.129Z,62.46
2022-10-29T19:58:48.670Z,62.49
2022-10-29T20:01:17.805Z,63.59
2022-10-29T20:03:46.189Z,62.58
2022-10-29T20:06:14.479Z,62.68
2022-10-29T20:08:41.927Z,63.29
2022-10-29T20:11:09.119Z,63.68
2022-10-29T20:13:37.449Z,62.81
2022-10-29T20:16:10.842Z,63.38
2022-10-29T20:18:37.862Z,64.46
2022-10-29T20:23:37.882Z,65.17
2022-10-29T20:26:06.190Z,65.00
2022-10-29T20:28:33.966Z,65.11
2022-10-29T20:31:12.895Z,65.11
2022-10-29T20:33:39.927Z,64.28
2022-10-29T20:36:07.329Z,66.06
2022-10-29T20:38:34.577Z,65.76
2022-10-29T20:41:01.491Z,65.22
2022-10-29T20:43:28.817Z,65.34
2022-10-29T20:46:01.389Z,64.42
2022-10-29T20:48:29.737Z,64.56
2022-10-29T20:50:56.845Z,65.48
2022-10-29T20:53:23.906Z,65.23
2022-10-29T20:55:51.308Z,65.20
2022-10-29T20:58:19.882Z,65.12
2022-10-29T21:00:48.106Z,65.23
2022-10-29T21:03:17.616Z,65.46
2022-10-29T21:05:44.582Z,65.44
2022-10-29T21:08:11.730Z,65.76
2022-10-29T21:10:38.596Z,65.85
2022-10-29T21:13:05.695Z,67.57
2022-10-29T21:15:35.828Z,67.00
2022-10-29T21:18:03.093Z,66.81
2022-10-29T21:20:30.055Z,67.56
2022-10-29T21:22:57.198Z,67.04
2022-10-29T21:25:24.310Z,67.73
2022-10-29T21:27:54.093Z,67.68
2022-10-29T21:30:21.484Z,68.77
2022-10-29T21:32:48.472Z,69.59
2022-10-29T21:35:15.918Z,68.67
2022-10-29T21:37:43.146Z,69.29
2022-10-29T21:40:10.813Z,68.84
2022-10-29T21:42:37.966Z,69.60
2022-10-29T21:45:06.125Z,69.31
2022-10-29T21:47:33.196Z,68.95
2022-10-29T21:50:00.233Z,69.16
2022-10-29T21:52:27.382Z,69.56
2022-10-29T21:54:54.430Z,69.21
2022-10-29T21:57:21.436Z,69.64
2022-10-29T21:59:48.566Z,70.10
2022-10-29T22:02:15.581Z,69.59
2022-10-29T22:04:42.731Z,70.13
2022-10-29T22:07:10.263Z,70.21
2022-10-29T22:09:37.247Z,70.97
2022-10-29T22:12:04.741Z,70.02
2022-10-29T22:14:31.819Z,70.62
2022-10-29T22:16:58.736Z,70.86
2022-10-29T22:19:25.807Z,71.84
2022-10-29T22:21:55.429Z,72.83
2022-10-29T22:24:22.403Z,71.43
2022-10-29T22:26:49.331Z,71.80
2022-10-29T22:29:16.380Z,73.00
2022-10-29T22:31:43.467Z,72.75
2022-10-29T22:34:10.550Z,73.64
2022-10-29T22:36:37.638Z,73.09
2022-10-29T22:39:05.235Z,73.27
2022-10-29T22:41:32.540Z,73.55
2022-10-29T22:44:00.281Z,73.45
2022-10-29T22:46:28.954Z,72.92
2022-10-29T22:48:56.708Z,73.72
2022-10-29T22:51:27.015Z,73.40
2022-10-29T22:53:54.407Z,72.63
2022-10-29T22:56:43.465Z,72.87
2022-10-29T22:59:10.569Z,72.54
2022-10-29T23:01:40.610Z,72.92
2022-10-29T23:04:11.247Z,73.74
2022-10-29T23:06:38.301Z,73.54
2022-10-29T23:09:06.832Z,73.34
2022-10-29T23:11:38.350Z,74.72
2022-10-29T23:14:05.874Z,74.60
2022-10-29T23:16:35.022Z,74.43
2022-10-29T23:19:05.022Z,73.85
2022-10-29T23:21:32.487Z,73.88
2022-10-29T23:23:59.745Z,73.94
2022-10-29T23:26:27.439Z,74.35
2022-10-29T23:28:55.000Z,74.48
2022-10-29T23:31:25.040Z,75.57
2022-10-29T23:33:54.866Z,76.25
2022-10-29T23:36:23.886Z,76.10
2022-10-29T23:38:58.615Z,75.60
2022-10-29T23:41:27.825Z,77.26
2022-10-29T23:43:55.172Z,76.23
2022-10-29T23:46:22.282Z,77.24
2022-10-29T23:48:49.672Z,77.46
2022-10-29T23:51:16.738Z,77.89
2022-10-29T23:53:43.900Z,76.29
2022-10-29T23:56:11.162Z,77.99
2022-10-29T23:58:38.226Z,77.58
